Time;durP1;ratioP1;P1;durP2;ratioP2;P2;SDS_P1;SDS_P2;PMS_P1;PMS_P2;Temp;Humidity;BMP_temperature;BMP_pressure;BME280_temperature;BME280_humidity;BME280_pressure;Samples;Min_cycle;Max_cycle;Signal;HPM_P1;HPM_P2
2021/06/17 00:01:09;;;;;;;1.40;0.90;;;25.10;79.80;;;;;;4977027;28;20508;-80
2021/06/17 00:03:37;;;;;;;1.60;1.20;;;25.10;79.80;;;;;;4995659;28;20465;-78
2021/06/17 00:06:05;;;;;;;1.50;0.97;;;25.00;80.30;;;;;;4982624;28;20489;-79
2021/06/17 00:08:32;;;;;;;1.50;0.90;;;25.00;80.00;;;;;;4995561;28;20469;-79
2021/06/17 00:10:59;;;;;;;1.43;0.90;;;25.00;80.10;;;;;;4984160;28;20460;-78
2021/06/17 00:13:29;;;;;;;1.50;0.90;;;25.00;79.70;;;;;;5006114;28;20484;-78
2021/06/17 00:15:58;;;;;;;1.43;0.90;;;25.00;80.00;;;;;;4984200;28;20491;-77
2021/06/17 00:18:26;;;;;;;1.50;0.80;;;24.90;79.90;;;;;;5003282;28;20975;-78
2021/06/17 00:20:54;;;;;;;1.40;0.90;;;24.90;79.90;;;;;;4982457;28;20859;-78
2021/06/17 00:23:21;;;;;;;1.50;1.03;;;24.90;79.90;;;;;;4991152;28;20515;-78
2021/06/17 00:25:48;;;;;;;1.50;0.90;;;24.90;80.10;;;;;;4981238;28;20496;-80
2021/06/17 00:28:15;;;;;;;1.50;0.90;;;24.80;79.80;;;;;;5007098;28;20471;-77
2021/06/17 00:30:42;;;;;;;1.50;0.90;;;24.80;79.60;;;;;;4992233;28;20457;-81
2021/06/17 00:33:09;;;;;;;1.50;0.90;;;24.70;79.90;;;;;;4997944;28;20477;-79
2021/06/17 00:35:36;;;;;;;1.47;0.90;;;24.70;79.80;;;;;;4992808;28;20500;-80
2021/06/17 00:38:04;;;;;;;1.47;0.90;;;24.70;79.90;;;;;;4981797;28;21019;-79
2021/06/17 00:40:32;;;;;;;1.50;0.90;;;24.70;80.30;;;;;;4990423;28;20488;-79
2021/06/17 00:42:59;;;;;;;1.50;0.90;;;24.60;80.10;;;;;;4981333;28;20524;-81
2021/06/17 00:45:28;;;;;;;1.43;0.83;;;24.60;80.30;;;;;;4988566;28;20496;-80
2021/06/17 00:47:55;;;;;;;1.50;0.90;;;24.50;80.50;;;;;;4995672;28;20480;-78
2021/06/17 00:50:23;;;;;;;1.50;1.10;;;24.50;80.90;;;;;;4992466;28;20611;-79
2021/06/17 00:52:50;;;;;;;1.50;0.90;;;24.50;81.10;;;;;;4981107;28;20479;-79
2021/06/17 00:55:18;;;;;;;1.50;0.90;;;24.50;81.20;;;;;;4987072;28;20492;-79
2021/06/17 00:57:46;;;;;;;1.50;0.90;;;24.40;81.00;;;;;;4980540;28;20496;-77
2021/06/17 01:00:15;;;;;;;1.50;1.00;;;24.40;81.00;;;;;;4990910;28;20957;-79
2021/06/17 01:02:41;;;;;;;1.50;1.00;;;24.40;81.10;;;;;;4980836;28;20507;-79
2021/06/17 01:05:11;;;;;;;1.50;1.10;;;24.30;81.20;;;;;;4990691;28;20496;-78
2021/06/17 01:07:44;;;;;;;1.50;0.90;;;24.30;81.40;;;;;;4995294;28;20472;-80
2021/06/17 01:10:16;;;;;;;1.47;0.90;;;24.30;81.70;;;;;;4990992;28;20461;-80
2021/06/17 01:12:56;;;;;;;1.50;0.90;;;24.20;81.90;;;;;;4984051;28;20571;-79
2021/06/17 01:15:24;;;;;;;1.50;1.10;;;24.20;81.80;;;;;;4995192;28;20987;-79
2021/06/17 01:17:59;;;;;;;1.50;0.90;;;24.20;82.00;;;;;;4994036;28;20480;-80
2021/06/17 01:20:31;;;;;;;1.50;0.90;;;24.20;81.90;;;;;;4987347;28;20535;-78
2021/06/17 01:23:09;;;;;;;1.50;0.90;;;24.10;82.10;;;;;;4992705;28;20585;-79
2021/06/17 01:25:56;;;;;;;1.40;0.90;;;24.10;82.00;;;;;;4994652;28;20481;-78
2021/06/17 01:28:24;;;;;;;1.50;0.90;;;24.10;82.00;;;;;;4979706;28;20916;-79
2021/06/17 01:30:56;;;;;;;1.50;0.90;;;24.10;82.00;;;;;;4978287;28;20492;-80
2021/06/17 01:33:25;;;;;;;1.50;1.20;;;24.10;81.90;;;;;;4995652;28;20962;-80
2021/06/17 01:35:54;;;;;;;1.50;1.00;;;24.10;82.20;;;;;;4980578;28;20995;-79
2021/06/17 01:38:24;;;;;;;2.10;1.50;;;24.10;82.10;;;;;;5004704;28;20472;-82
2021/06/17 01:40:52;;;;;;;1.50;0.90;;;24.10;81.90;;;;;;4979916;28;20485;-79
2021/06/17 01:43:20;;;;;;;1.50;0.90;;;24.00;82.40;;;;;;4988303;28;20471;-80
2021/06/17 01:45:49;;;;;;;1.50;0.90;;;24.00;82.40;;;;;;4986337;28;20481;-80
2021/06/17 01:48:17;;;;;;;1.47;0.90;;;24.00;82.00;;;;;;4990015;28;20484;-78
2021/06/17 01:50:46;;;;;;;1.47;0.90;;;24.00;82.40;;;;;;4989602;28;20833;-80
2021/06/17 01:53:14;;;;;;;1.47;0.90;;;24.00;82.10;;;;;;4976762;28;20481;-79
2021/06/17 01:55:42;;;;;;;1.43;0.90;;;24.00;82.10;;;;;;4990556;28;20576;-79
2021/06/17 01:58:11;;;;;;;1.50;0.90;;;24.00;82.30;;;;;;4995257;28;20503;-80
2021/06/17 02:00:42;;;;;;;1.50;0.90;;;23.90;82.40;;;;;;4990199;28;20487;-79
2021/06/17 02:03:10;;;;;;;1.50;0.90;;;23.90;82.40;;;;;;4980351;28;20481;-79
2021/06/17 02:05:38;;;;;;;1.50;1.10;;;23.90;82.50;;;;;;4995032;28;20493;-80
2021/06/17 02:08:08;;;;;;;1.60;1.17;;;23.90;82.50;;;;;;4995235;28;20488;-79
2021/06/17 02:10:37;;;;;;;1.50;0.90;;;23.90;83.40;;;;;;4992343;28;20468;-79
2021/06/17 02:13:05;;;;;;;1.50;1.00;;;23.90;82.80;;;;;;4997704;28;20483;-78
2021/06/17 02:15:33;;;;;;;1.50;0.90;;;23.90;82.90;;;;;;4989518;28;21019;-79
2021/06/17 02:18:01;;;;;;;1.50;0.90;;;23.80;83.30;;;;;;4981399;28;20492;-77
2021/06/17 02:20:30;;;;;;;1.50;1.00;;;23.80;83.30;;;;;;4994301;28;20489;-82
2021/06/17 02:23:02;;;;;;;1.47;0.90;;;23.80;83.10;;;;;;4998575;28;20479;-78
2021/06/17 02:25:29;;;;;;;1.50;0.90;;;23.80;82.80;;;;;;4994191;28;20565;-80
2021/06/17 02:28:00;;;;;;;1.50;0.90;;;23.70;83.20;;;;;;4983824;28;20485;-80
2021/06/17 02:30:31;;;;;;;1.50;0.90;;;23.70;83.40;;;;;;4993773;28;20461;-80
2021/06/17 02:33:00;;;;;;;1.50;1.00;;;23.70;83.70;;;;;;4994893;28;20499;-80
2021/06/17 02:35:30;;;;;;;1.50;1.00;;;23.70;84.10;;;;;;4994373;28;21030;-80
2021/06/17 02:37:59;;;;;;;1.50;1.10;;;23.60;83.80;;;;;;4997500;28;21030;-78
2021/06/17 02:40:28;;;;;;;1.50;0.90;;;23.60;83.60;;;;;;4991933;28;20489;-78
2021/06/17 02:42:57;;;;;;;2.80;2.57;;;23.60;83.70;;;;;;4983832;28;21215;-77
2021/06/17 02:45:26;;;;;;;1.50;0.90;;;23.60;83.70;;;;;;4992438;28;21070;-80
2021/06/17 02:47:52;;;;;;;1.50;0.90;;;23.60;84.10;;;;;;4997049;28;20480;-79
2021/06/17 02:50:20;;;;;;;1.50;0.90;;;23.60;83.80;;;;;;4992070;28;20543;-79
2021/06/17 02:52:49;;;;;;;1.50;1.00;;;23.60;84.00;;;;;;4996420;28;20613;-78
2021/06/17 02:55:16;;;;;;;1.47;0.90;;;23.60;83.80;;;;;;4991715;28;21074;-79
2021/06/17 02:57:55;;;;;;;1.60;1.10;;;23.60;83.90;;;;;;4977707;28;20485;-79
2021/06/17 03:00:26;;;;;;;1.47;0.90;;;23.60;83.70;;;;;;4993112;28;20512;-77
2021/06/17 03:03:04;;;;;;;1.47;0.87;;;23.50;84.00;;;;;;4982521;28;20899;-79
2021/06/17 03:05:36;;;;;;;1.50;0.90;;;23.50;84.00;;;;;;4997956;28;20477;-78
2021/06/17 03:08:13;;;;;;;1.50;0.90;;;23.50;84.20;;;;;;4997826;28;20472;-80
2021/06/17 03:10:43;;;;;;;1.50;0.90;;;23.50;83.90;;;;;;4989934;28;20515;-80
2021/06/17 03:13:11;;;;;;;1.47;0.90;;;23.50;84.10;;;;;;4997759;28;21050;-80
2021/06/17 03:15:42;;;;;;;1.47;0.90;;;23.50;84.10;;;;;;4988417;28;20485;-79
2021/06/17 03:18:11;;;;;;;1.47;0.93;;;23.50;84.20;;;;;;4983769;28;20525;-78
2021/06/17 03:20:41;;;;;;;1.50;0.90;;;23.40;84.50;;;;;;4990191;28;20496;-78
2021/06/17 03:23:14;;;;;;;1.50;1.00;;;23.40;84.20;;;;;;4997997;28;20488;-79
2021/06/17 03:25:43;;;;;;;3.10;1.00;;;23.40;84.10;;;;;;4993968;28;20505;-78
2021/06/17 03:28:13;;;;;;;1.50;0.90;;;23.40;84.70;;;;;;5000123;28;20869;-78
2021/06/17 03:30:46;;;;;;;2.47;2.27;;;23.30;85.00;;;;;;4989407;28;20465;-81
2021/06/17 03:33:14;;;;;;;1.47;0.90;;;23.30;84.90;;;;;;4979622;28;20477;-80
2021/06/17 03:35:42;;;;;;;1.50;0.90;;;23.30;84.70;;;;;;4996122;28;20527;-79
2021/06/17 03:38:11;;;;;;;1.50;1.00;;;23.30;84.90;;;;;;4980623;28;20529;-79
2021/06/17 03:40:39;;;;;;;1.50;0.90;;;23.30;84.70;;;;;;4993257;28;20493;-79
2021/06/17 03:43:06;;;;;;;1.50;0.90;;;23.30;84.70;;;;;;4982653;28;20488;-79
2021/06/17 03:45:34;;;;;;;1.50;0.90;;;23.30;84.70;;;;;;4993652;28;20556;-80
2021/06/17 03:48:03;;;;;;;1.47;0.90;;;23.30;84.90;;;;;;4996826;28;20480;-77
2021/06/17 03:50:31;;;;;;;1.70;1.33;;;23.30;84.40;;;;;;4992640;28;20457;-79
2021/06/17 03:52:59;;;;;;;1.50;1.00;;;23.30;84.40;;;;;;4980626;28;20480;-79
2021/06/17 03:55:28;;;;;;;1.50;0.90;;;23.30;84.40;;;;;;4992298;28;20516;-78
2021/06/17 03:57:57;;;;;;;1.50;1.10;;;23.30;84.70;;;;;;4981987;28;20480;-80
2021/06/17 04:00:26;;;;;;;1.50;0.90;;;23.30;85.00;;;;;;4992729;28;20489;-80
2021/06/17 04:02:54;;;;;;;1.50;0.90;;;23.30;84.90;;;;;;4980697;28;20992;-78
2021/06/17 04:05:22;;;;;;;1.50;0.90;;;23.20;85.00;;;;;;4992988;28;20477;-79
2021/06/17 04:07:54;;;;;;;1.47;0.90;;;23.30;84.70;;;;;;4999056;28;20480;-79
2021/06/17 04:10:22;;;;;;;1.43;0.90;;;23.30;85.20;;;;;;4994276;28;20466;-82
2021/06/17 04:12:54;;;;;;;1.50;0.90;;;23.30;84.90;;;;;;4993499;28;20603;-79
2021/06/17 04:15:22;;;;;;;1.47;0.90;;;23.30;85.20;;;;;;5002007;28;20473;-79
2021/06/17 04:17:54;;;;;;;1.47;0.90;;;23.30;84.90;;;;;;5008459;28;20539;-82
2021/06/17 04:20:26;;;;;;;1.50;0.90;;;23.30;84.90;;;;;;5002343;28;20525;-79
2021/06/17 04:22:55;;;;;;;1.43;0.90;;;23.30;84.60;;;;;;5006208;28;20504;-80
2021/06/17 04:25:23;;;;;;;1.47;0.90;;;23.30;85.20;;;;;;4996370;28;20494;-81
2021/06/17 04:27:56;;;;;;;1.50;0.90;;;23.30;84.90;;;;;;4991485;28;20487;-81
2021/06/17 04:30:26;;;;;;;1.47;0.90;;;23.30;85.00;;;;;;5001182;28;20472;-79
2021/06/17 04:32:55;;;;;;;1.47;0.90;;;23.30;85.00;;;;;;5005227;28;20484;-77
2021/06/17 04:35:24;;;;;;;1.50;0.90;;;23.40;84.70;;;;;;5001495;28;20548;-80
2021/06/17 04:37:52;;;;;;;1.50;0.90;;;23.40;84.70;;;;;;5005800;28;20878;-80
2021/06/17 04:40:20;;;;;;;1.47;0.90;;;23.40;84.70;;;;;;5000037;28;20469;-78
2021/06/17 04:42:49;;;;;;;1.43;0.90;;;23.50;84.50;;;;;;4989835;28;20477;-80
2021/06/17 04:45:20;;;;;;;2.13;1.80;;;23.60;84.60;;;;;;5000274;28;20499;-83
2021/06/17 04:47:49;;;;;;;2.47;1.57;;;23.70;84.40;;;;;;5003845;28;20484;-80
2021/06/17 04:50:18;;;;;;;1.50;0.90;;;23.80;84.10;;;;;;4999570;28;20468;-80
2021/06/17 04:53:09;;;;;;;1.50;1.00;;;23.80;84.10;;;;;;5006500;28;20476;-79
2021/06/17 04:55:41;;;;;;;1.50;0.87;;;23.90;83.60;;;;;;4999057;28;20964;-79
2021/06/17 04:58:08;;;;;;;1.50;1.00;;;24.10;83.30;;;;;;4987410;28;20560;-80
2021/06/17 05:00:36;;;;;;;1.50;0.90;;;24.20;83.00;;;;;;4995125;28;20549;-79
2021/06/17 05:03:03;;;;;;;1.47;0.90;;;24.30;82.60;;;;;;4992363;28;20572;-78
2021/06/17 05:05:30;;;;;;;1.50;0.97;;;24.40;82.40;;;;;;4997068;28;20488;-79
2021/06/17 05:10:51;;;;;;;1.50;0.90;;;24.60;82.20;;;;;;4997074;28;20441;-79
2021/06/17 05:13:20;;;;;;;1.47;0.90;;;24.80;81.50;;;;;;4988345;28;20504;-80
2021/06/17 05:15:48;;;;;;;1.50;0.90;;;25.00;80.60;;;;;;4992436;28;20508;-81
2021/06/17 05:18:16;;;;;;;1.50;0.90;;;25.10;80.40;;;;;;4999715;28;20461;-78
2021/06/17 05:20:43;;;;;;;2.07;1.00;;;25.10;80.40;;;;;;4998507;28;20461;-80
2021/06/17 05:23:12;;;;;;;1.50;0.90;;;25.20;79.90;;;;;;4989319;28;20461;-78
2021/06/17 05:25:38;;;;;;;1.50;0.90;;;25.30;79.80;;;;;;4997183;28;20481;-79
2021/06/17 05:28:06;;;;;;;1.47;0.90;;;25.30;79.90;;;;;;4994035;28;20479;-79
2021/06/17 05:30:33;;;;;;;1.47;0.87;;;25.40;79.90;;;;;;5004046;28;20488;-79
2021/06/17 05:33:01;;;;;;;1.43;0.90;;;25.60;79.60;;;;;;4992848;28;20564;-79
2021/06/17 05:35:28;;;;;;;1.50;1.20;;;25.80;78.90;;;;;;5004698;28;20552;-79
2021/06/17 05:37:55;;;;;;;1.47;0.90;;;25.90;78.40;;;;;;5007225;28;20567;-81
2021/06/17 05:40:22;;;;;;;1.50;0.90;;;26.00;78.20;;;;;;5000227;28;20457;-78
2021/06/17 05:42:49;;;;;;;1.50;0.90;;;26.10;78.20;;;;;;4990872;28;20488;-80
2021/06/17 05:45:16;;;;;;;1.50;0.90;;;26.20;78.10;;;;;;5004362;28;20572;-77
2021/06/17 05:47:43;;;;;;;1.50;0.90;;;26.30;78.00;;;;;;5007003;28;20498;-79
2021/06/17 05:50:12;;;;;;;1.50;0.90;;;26.40;77.60;;;;;;4998340;28;21144;-80
2021/06/17 05:52:39;;;;;;;1.50;0.87;;;26.50;77.20;;;;;;4996687;28;20523;-81
2021/06/17 05:55:08;;;;;;;1.47;0.87;;;26.70;77.10;;;;;;5006264;28;20552;-80
2021/06/17 05:57:36;;;;;;;1.50;0.83;;;26.70;76.90;;;;;;5008187;28;20587;-79
2021/06/17 06:00:03;;;;;;;1.50;1.10;;;26.70;76.60;;;;;;5007318;28;20464;-80
2021/06/17 06:02:30;;;;;;;1.50;0.90;;;26.80;76.60;;;;;;5007388;28;20548;-80
2021/06/17 06:04:57;;;;;;;1.50;0.80;;;26.90;76.50;;;;;;5002031;28;20495;-81
2021/06/17 06:07:25;;;;;;;1.50;0.90;;;27.10;76.30;;;;;;4997552;28;20571;-79
2021/06/17 06:09:55;;;;;;;1.50;0.80;;;27.20;75.80;;;;;;4998910;28;20471;-81
2021/06/17 06:12:22;;;;;;;1.43;0.80;;;27.40;75.30;;;;;;5000040;28;20836;-80
2021/06/17 06:14:49;;;;;;;1.50;0.90;;;27.60;75.10;;;;;;5005785;28;20488;-79
2021/06/17 06:17:16;;;;;;;1.50;0.90;;;27.80;74.30;;;;;;5043921;22;20493;-80
2021/06/17 06:19:43;;;;;;;1.50;0.80;;;28.00;74.00;;;;;;5020754;28;20582;-78
2021/06/17 06:22:10;;;;;;;1.50;0.90;;;28.20;73.70;;;;;;5017230;28;21020;-80
2021/06/17 06:24:39;;;;;;;1.50;0.90;;;28.50;73.30;;;;;;5023308;28;20459;-79
2021/06/17 06:27:08;;;;;;;1.50;0.90;;;28.70;73.10;;;;;;5014782;28;20482;-77
2021/06/17 06:29:36;;;;;;;1.50;1.00;;;28.80;72.90;;;;;;5021116;28;21181;-80
2021/06/17 06:32:04;;;;;;;1.50;0.90;;;29.00;72.30;;;;;;5016448;28;20475;-80
2021/06/17 06:34:31;;;;;;;1.50;0.90;;;29.20;72.40;;;;;;5021481;28;20911;-80
2021/06/17 06:36:58;;;;;;;1.50;1.00;;;29.40;71.20;;;;;;5016419;28;20478;-79
2021/06/17 06:39:25;;;;;;;1.50;0.90;;;29.50;71.20;;;;;;5016134;28;20978;-79
2021/06/17 06:41:53;;;;;;;1.50;0.80;;;29.50;70.40;;;;;;5014158;28;20477;-78
2021/06/17 06:44:22;;;;;;;1.60;1.10;;;29.40;70.40;;;;;;5025058;28;20464;-79
2021/06/17 06:46:50;;;;;;;1.47;0.80;;;29.20;70.70;;;;;;5014537;28;20520;-79
2021/06/17 06:49:18;;;;;;;1.80;1.27;;;29.10;70.90;;;;;;5026191;28;20517;-79
2021/06/17 06:51:44;;;;;;;1.50;0.90;;;29.00;71.30;;;;;;5012307;28;20478;-78
2021/06/17 06:54:12;;;;;;;1.43;0.80;;;29.00;71.30;;;;;;5031546;28;20470;-79
2021/06/17 06:56:40;;;;;;;1.43;0.80;;;29.20;71.60;;;;;;5025678;28;20491;-79
2021/06/17 06:59:08;;;;;;;1.47;0.80;;;29.50;71.50;;;;;;5029963;28;20466;-78
2021/06/17 07:01:36;;;;;;;1.50;0.80;;;29.90;70.50;;;;;;5019774;28;20569;-77
2021/06/17 07:04:03;;;;;;;1.47;0.90;;;30.10;70.30;;;;;;5029783;28;20464;-78
2021/06/17 07:06:30;;;;;;;1.43;0.80;;;30.20;70.00;;;;;;5013195;28;20561;-77
2021/06/17 07:08:57;;;;;;;1.47;0.80;;;30.30;69.20;;;;;;5029748;28;20468;-78
2021/06/17 07:11:23;;;;;;;1.47;0.90;;;30.40;70.30;;;;;;5014038;28;20481;-79
2021/06/17 07:13:51;;;;;;;1.47;0.90;;;30.80;68.70;;;;;;5032918;28;20843;-82
2021/06/17 07:16:19;;;;;;;1.50;0.80;;;30.90;67.90;;;;;;5014811;28;20510;-79
2021/06/17 07:18:46;;;;;;;1.43;0.80;;;31.00;68.30;;;;;;5025014;28;20799;-79
2021/06/17 07:21:16;;;;;;;1.50;0.80;;;31.20;68.20;;;;;;5011982;28;20723;-77
2021/06/17 07:23:49;;;;;;;1.50;0.80;;;31.30;68.10;;;;;;5032515;22;20496;-78
2021/06/17 07:26:17;;;;;;;1.50;0.90;;;31.50;67.90;;;;;;4991484;28;20510;-78
2021/06/17 07:28:45;;;;;;;1.50;0.90;;;31.70;67.20;;;;;;4985830;28;20460;-78
2021/06/17 07:31:13;;;;;;;1.47;0.80;;;32.00;66.60;;;;;;4965784;28;20534;-77
2021/06/17 07:33:42;;;;;;;1.50;0.80;;;32.00;66.40;;;;;;5044569;23;21014;-80
2021/06/17 07:36:09;;;;;;;1.50;0.90;;;32.00;66.10;;;;;;5038010;23;20920;-79
2021/06/17 07:38:57;;;;;;;1.50;1.00;;;32.10;64.80;;;;;;5026550;28;20475;-76
2021/06/17 07:41:29;;;;;;;1.47;0.80;;;32.10;66.10;;;;;;5012081;28;20233;-77
2021/06/17 07:43:56;;;;;;;1.43;0.80;;;32.20;66.00;;;;;;4996543;28;20554;-77
2021/06/17 07:46:23;;;;;;;1.47;0.80;;;32.20;65.50;;;;;;5031900;22;20480;-77
2021/06/17 07:48:51;;;;;;;1.43;0.80;;;32.10;65.90;;;;;;5013050;28;20459;-79
2021/06/17 07:51:19;;;;;;;1.47;0.80;;;32.00;65.70;;;;;;5003723;28;20971;-79
2021/06/17 07:53:46;;;;;;;1.43;0.80;;;31.80;65.80;;;;;;5009528;28;20201;-78
2021/06/17 07:56:13;;;;;;;1.43;0.80;;;31.90;66.10;;;;;;4997985;28;20591;-79
2021/06/17 07:58:42;;;;;;;1.50;0.80;;;32.00;65.70;;;;;;5010425;28;20643;-76
2021/06/17 08:01:09;;;;;;;1.47;0.80;;;32.00;66.30;;;;;;4997173;28;20559;-78
2021/06/17 08:03:36;;;;;;;1.43;0.80;;;32.20;65.70;;;;;;5012579;28;20201;-78
2021/06/17 08:06:05;;;;;;;1.50;0.80;;;32.10;65.90;;;;;;4997702;28;20260;-77
2021/06/17 08:08:32;;;;;;;1.43;0.80;;;32.10;65.80;;;;;;5007905;28;20205;-79
2021/06/17 08:10:59;;;;;;;1.47;0.80;;;32.30;65.70;;;;;;4997659;28;20243;-78
2021/06/17 08:13:25;;;;;;;1.47;0.80;;;32.40;65.50;;;;;;5010808;28;20223;-80
2021/06/17 08:15:52;;;;;;;1.47;0.80;;;32.40;65.60;;;;;;4998138;28;20233;-78
2021/06/17 08:18:19;;;;;;;1.43;0.80;;;32.40;66.00;;;;;;5012391;28;20241;-79
2021/06/17 08:20:46;;;;;;;1.43;0.80;;;32.60;65.70;;;;;;5005038;28;20204;-76
2021/06/17 08:23:15;;;;;;;1.40;0.80;;;32.70;64.60;;;;;;5006066;28;20566;-79
2021/06/17 08:25:56;;;;;;;1.50;0.80;;;32.80;65.10;;;;;;5009148;28;20319;-79
2021/06/17 08:29:12;;;;;;;1.50;0.80;;;33.00;64.40;;;;;;4982232;28;20224;-78
2021/06/17 08:31:41;;;;;;;1.50;0.80;;;33.10;64.80;;;;;;4948503;28;20259;-78
2021/06/17 08:34:08;;;;;;;1.40;0.80;;;33.40;63.80;;;;;;5008026;28;20211;-80
2021/06/17 08:36:35;;;;;;;1.43;0.80;;;33.70;62.90;;;;;;4997460;28;20225;-79
2021/06/17 08:39:04;;;;;;;1.42;0.80;;;33.70;62.80;;;;;;5007251;28;20784;-80
2021/06/17 08:41:32;;;;;;;1.40;0.80;;;33.90;62.50;;;;;;4997981;28;20239;-81
2021/06/17 08:43:59;;;;;;;1.45;0.80;;;34.10;62.10;;;;;;5008174;28;20216;-79
2021/06/17 08:46:26;;;;;;;1.40;0.80;;;34.30;61.30;;;;;;4993336;28;20229;-78
2021/06/17 08:48:53;;;;;;;1.42;0.80;;;34.40;61.30;;;;;;5001662;28;20196;-81
2021/06/17 08:51:21;;;;;;;1.40;0.80;;;34.60;61.10;;;;;;4998063;28;20248;-80
2021/06/17 08:53:50;;;;;;;1.42;0.80;;;34.80;61.50;;;;;;5011310;28;20251;-80
2021/06/17 08:56:18;;;;;;;1.40;0.90;;;34.80;61.30;;;;;;4994343;28;20237;-80
2021/06/17 08:58:46;;;;;;;1.42;0.80;;;34.80;60.90;;;;;;5001108;28;20785;-82
2021/06/17 09:01:14;;;;;;;1.50;1.10;;;34.90;61.20;;;;;;4996083;28;20332;-80
2021/06/17 09:03:42;;;;;;;1.45;0.80;;;35.10;60.40;;;;;;5013599;28;20576;-80
2021/06/17 09:06:09;;;;;;;1.40;0.80;;;35.30;60.20;;;;;;4995764;28;20241;-80
2021/06/17 09:08:36;;;;;;;1.40;0.80;;;35.40;59.70;;;;;;4998499;28;20481;-80
2021/06/17 09:11:04;;;;;;;2.47;1.10;;;35.70;59.40;;;;;;4997446;28;20687;-81
2021/06/17 09:13:34;;;;;;;1.50;1.00;;;35.60;59.50;;;;;;5003585;28;20232;-80
2021/06/17 09:16:03;;;;;;;1.45;0.90;;;35.70;60.00;;;;;;4997162;28;20224;-78
2021/06/17 09:18:32;;;;;;;1.50;0.90;;;35.80;59.10;;;;;;4998487;28;20315;-81
2021/06/17 09:21:01;;;;;;;1.45;0.80;;;35.90;58.60;;;;;;5004517;28;20710;-81
2021/06/17 09:23:32;;;;;;;1.42;0.80;;;35.90;59.10;;;;;;5017104;28;20226;-79
2021/06/17 09:26:00;;;;;;;1.40;0.80;;;36.00;58.50;;;;;;5003229;28;20287;-80
2021/06/17 09:28:28;;;;;;;1.42;0.80;;;36.00;58.10;;;;;;4997076;28;20224;-81
2021/06/17 09:30:58;;;;;;;1.45;0.80;;;35.80;59.10;;;;;;5002948;28;20795;-81
2021/06/17 09:33:26;;;;;;;1.40;0.80;;;36.00;59.20;;;;;;5001299;28;20224;-80
2021/06/17 09:35:55;;;;;;;1.45;0.80;;;36.20;58.90;;;;;;5004221;28;20227;-83
2021/06/17 09:38:24;;;;;;;1.45;0.80;;;36.40;58.50;;;;;;5001875;28;20686;-82
2021/06/17 09:40:52;;;;;;;1.40;0.80;;;36.50;58.10;;;;;;5002871;28;20231;-81
2021/06/17 09:43:22;;;;;;;1.40;0.80;;;36.70;58.40;;;;;;5000023;28;20200;-80
2021/06/17 09:45:54;;;;;;;1.40;0.80;;;36.90;57.60;;;;;;5004604;28;20240;-81
2021/06/17 09:48:44;;;;;;;1.48;0.80;;;37.00;58.10;;;;;;4998801;28;20197;-82
2021/06/17 09:51:51;;;;;;;1.40;0.80;;;37.00;56.60;;;;;;5001552;28;20226;-81
2021/06/17 09:54:21;;;;;;;1.40;0.80;;;37.10;56.50;;;;;;5012619;28;20196;-81
2021/06/17 09:56:53;;;;;;;1.42;0.80;;;37.10;57.80;;;;;;5002232;28;20739;-83
2021/06/17 09:59:49;;;;;;;1.40;0.80;;;37.20;57.90;;;;;;5015139;28;20209;-82
2021/06/17 10:02:18;;;;;;;1.40;0.80;;;37.30;56.50;;;;;;4964268;28;20855;-82
2021/06/17 10:04:47;;;;;;;1.40;0.80;;;37.30;57.10;;;;;;5020688;28;20196;-81
2021/06/17 10:07:18;;;;;;;1.40;0.80;;;37.50;57.80;;;;;;5009651;28;20695;-81
2021/06/17 10:10:03;;;;;;;1.40;0.80;;;37.60;56.70;;;;;;5020386;28;20193;-79
2021/06/17 10:12:30;;;;;;;1.50;1.08;;;37.40;56.00;;;;;;5003159;28;20251;-82
2021/06/17 10:15:00;;;;;;;1.40;0.80;;;36.80;57.10;;;;;;5016808;28;20280;-82
2021/06/17 10:17:27;;;;;;;1.40;0.80;;;36.70;57.20;;;;;;5007126;28;20224;-82
2021/06/17 10:19:58;;;;;;;1.40;0.90;;;36.60;57.30;;;;;;5014822;28;20239;-83
2021/06/17 10:22:25;;;;;;;1.50;1.00;;;36.60;57.50;;;;;;4990375;28;20288;-80
2021/06/17 10:24:52;;;;;;;1.40;0.80;;;36.60;57.70;;;;;;5011285;28;20196;-81
2021/06/17 10:27:30;;;;;;;1.40;0.85;;;36.70;58.00;;;;;;5006077;28;20776;-79
2021/06/17 10:30:00;;;;;;;1.40;0.80;;;36.70;57.20;;;;;;5012746;28;20819;-82
2021/06/17 10:32:34;;;;;;;1.40;0.80;;;36.80;57.60;;;;;;5005011;28;20232;-79
2021/06/17 10:35:03;;;;;;;1.40;0.80;;;36.80;57.60;;;;;;5014124;28;20209;-80
2021/06/17 10:37:31;;;;;;;1.40;0.80;;;36.90;57.20;;;;;;5002656;28;20296;-82
2021/06/17 10:40:04;;;;;;;1.40;0.80;;;37.10;56.90;;;;;;5012766;28;20201;-82
2021/06/17 10:42:39;;;;;;;1.40;0.80;;;37.00;56.90;;;;;;4990073;28;20320;-81
2021/06/17 10:45:08;;;;;;;1.40;0.80;;;36.80;56.50;;;;;;5011765;28;20327;-80
2021/06/17 10:48:06;;;;;;;1.40;0.80;;;36.90;56.50;;;;;;4989198;28;20320;-81
2021/06/17 10:50:49;;;;;;;1.40;0.80;;;37.10;56.60;;;;;;5013875;28;20272;-82
2021/06/17 10:53:46;;;;;;;1.40;0.90;;;37.00;56.00;;;;;;4987511;28;20228;-80
2021/06/17 10:56:18;;;;;;;1.40;0.80;;;37.00;56.10;;;;;;4987535;28;20341;-79
2021/06/17 10:58:56;;;;;;;1.40;0.80;;;37.10;56.00;;;;;;5011883;28;20228;-80
2021/06/17 11:01:25;;;;;;;1.40;0.80;;;37.20;55.70;;;;;;5001689;28;20629;-80
2021/06/17 11:04:20;;;;;;;1.40;0.80;;;37.30;55.50;;;;;;5012443;28;20231;-79
2021/06/17 11:07:19;;;;;;;1.40;0.80;;;37.50;55.70;;;;;;5002756;28;20259;-83
2021/06/17 11:10:07;;;;;;;1.40;0.90;;;37.60;55.30;;;;;;5012331;28;20282;-83
2021/06/17 11:12:49;;;;;;;1.40;0.80;;;37.80;54.70;;;;;;4999265;28;20813;-79
2021/06/17 11:15:36;;;;;;;2.58;1.35;;;37.90;54.40;;;;;;5014221;28;20670;-78
2021/06/17 11:18:04;;;;;;;1.38;0.80;;;38.00;54.40;;;;;;4990499;28;20707;-82
2021/06/17 11:20:44;;;;;;;1.38;0.80;;;38.00;54.80;;;;;;5013343;28;20205;-83
2021/06/17 11:23:38;;;;;;;1.40;0.80;;;38.10;55.00;;;;;;4999473;28;20224;-81
2021/06/17 11:26:05;;;;;;;1.40;0.80;;;38.20;54.30;;;;;;5005140;28;20221;-82
2021/06/17 11:28:56;;;;;;;1.40;0.80;;;38.30;54.10;;;;;;5009059;28;20228;-82
2021/06/17 11:31:39;;;;;;;1.40;0.80;;;38.30;54.20;;;;;;4981063;28;20316;-82
2021/06/17 11:34:07;;;;;;;1.40;0.80;;;38.40;53.50;;;;;;5008156;28;20232;-82
2021/06/17 11:36:49;;;;;;;1.40;0.80;;;38.60;53.40;;;;;;5002324;28;20232;-82
2021/06/17 11:39:36;;;;;;;1.48;0.93;;;38.60;53.10;;;;;;5016061;28;20206;-79
2021/06/17 11:42:06;;;;;;;1.40;0.80;;;38.80;53.30;;;;;;5000866;28;20251;-82
2021/06/17 11:44:34;;;;;;;1.38;0.80;;;38.80;52.20;;;;;;5010205;28;20205;-82
2021/06/17 11:47:12;;;;;;;1.38;0.80;;;38.90;52.30;;;;;;4990101;28;20247;-84
2021/06/17 11:49:41;;;;;;;1.40;0.80;;;39.10;52.70;;;;;;5001062;28;20225;-83
2021/06/17 11:52:10;;;;;;;1.40;0.80;;;39.20;52.40;;;;;;5000559;28;20288;-80
2021/06/17 11:54:38;;;;;;;1.40;0.80;;;39.40;51.90;;;;;;5016052;28;20232;-82
2021/06/17 12:03:01;;;;;;;1.40;0.80;;;39.70;51.50;;;;;;5004307;28;20220;-82
2021/06/17 12:05:31;;;;;;;1.40;0.80;;;40.10;51.70;;;;;;5012902;28;20394;-82
2021/06/17 12:08:00;;;;;;;1.40;0.80;;;40.30;51.20;;;;;;5001995;28;20255;-81
2021/06/17 12:10:31;;;;;;;1.40;0.80;;;40.40;50.80;;;;;;5013441;28;20209;-83
2021/06/17 12:13:00;;;;;;;1.40;0.90;;;40.40;50.50;;;;;;4999347;28;20236;-83
2021/06/17 12:15:30;;;;;;;1.40;0.80;;;40.30;51.80;;;;;;5002815;28;20665;-82
2021/06/17 12:18:36;;;;;;;1.40;0.80;;;40.40;50.90;;;;;;5000795;28;20224;-82
2021/06/17 12:24:15;;;;;;;1.38;0.80;;;40.80;51.20;;;;;;4855615;29;20210;-82
2021/06/17 12:27:25;;;;;;;1.38;0.80;;;40.90;50.60;;;;;;4935039;28;20235;-83
2021/06/17 12:30:47;;;;;;;1.38;0.80;;;41.00;49.90;;;;;;4921983;29;20243;-83
2021/06/17 12:33:19;;;;;;;1.38;0.80;;;40.90;51.50;;;;;;4904410;29;20227;-82
2021/06/17 12:35:50;;;;;;;1.40;0.80;;;40.60;51.00;;;;;;4960799;28;20231;-81
2021/06/17 12:38:26;;;;;;;1.38;0.80;;;40.60;51.10;;;;;;4989684;28;20240;-81
2021/06/17 12:40:54;;;;;;;1.38;0.80;;;40.60;51.10;;;;;;4999585;28;20212;-83
2021/06/17 12:43:23;;;;;;;1.40;0.80;;;40.80;51.60;;;;;;5007242;28;20201;-81
2021/06/17 12:46:01;;;;;;;1.40;0.80;;;41.00;51.60;;;;;;5002685;28;20916;-82
2021/06/17 12:54:08;;;;;;;1.35;0.80;;;40.60;51.60;;;;;;5002706;28;20247;-82
2021/06/17 12:56:37;;;;;;;1.40;0.80;;;40.40;51.70;;;;;;4996501;28;20240;-81
2021/06/17 12:59:06;;;;;;;1.40;0.80;;;40.00;51.90;;;;;;5003606;28;20812;-85
2021/06/17 13:01:48;;;;;;;1.38;0.80;;;39.90;52.70;;;;;;5001552;28;20277;-82
2021/06/17 13:04:19;;;;;;;1.40;0.80;;;39.90;52.90;;;;;;5018484;28;20676;-81
2021/06/17 13:06:49;;;;;;;1.38;0.80;;;40.00;52.70;;;;;;5003272;28;20282;-82
2021/06/17 13:09:27;;;;;;;1.38;0.80;;;39.90;53.10;;;;;;5016388;28;20207;-83
2021/06/17 13:12:12;;;;;;;1.38;0.80;;;39.90;52.60;;;;;;5001681;28;20231;-83
2021/06/17 13:15:01;;;;;;;1.38;0.80;;;39.80;52.20;;;;;;5009872;28;20327;-83
2021/06/17 13:17:28;;;;;;;1.38;0.80;;;39.50;52.90;;;;;;4999520;28;20232;-82
2021/06/17 13:19:57;;;;;;;1.40;0.80;;;39.50;52.90;;;;;;5011915;28;20204;-81
2021/06/17 13:22:25;;;;;;;1.40;0.80;;;39.40;52.70;;;;;;5000234;28;20232;-82
2021/06/17 13:24:52;;;;;;;1.40;0.80;;;39.50;53.40;;;;;;5015644;28;20678;-82